createdAt,value
2022-11-21T00:03:30.293Z,21.6
2022-11-21T00:08:31.803Z,21.6
2022-11-21T00:13:33.307Z,21.6
2022-11-21T00:18:34.779Z,21.6
2022-11-21T00:23:36.279Z,21.7
2022-11-21T00:28:37.737Z,21.7
2022-11-21T00:33:39.244Z,21.8
2022-11-21T00:38:40.841Z,21.8
2022-11-21T00:43:42.330Z,21.8
2022-11-21T00:48:43.827Z,21.8
2022-11-21T00:53:45.348Z,21.9
2022-11-21T00:58:46.847Z,21.9
2022-11-21T01:03:48.336Z,21.9
2022-11-21T01:08:49.864Z,22
2022-11-21T01:13:51.443Z,22
2022-11-21T01:18:52.977Z,22.1
2022-11-21T01:23:54.516Z,22.1
2022-11-21T01:28:56.083Z,22.1
2022-11-21T01:33:57.638Z,22.1
2022-11-21T01:38:59.192Z,22.2
2022-11-21T01:44:00.778Z,22.2
2022-11-21T01:49:02.361Z,22.2
2022-11-21T01:54:03.932Z,22.2
2022-11-21T01:59:05.495Z,22.3
2022-11-21T02:04:07.066Z,22.3
2022-11-21T02:09:08.603Z,22.4
2022-11-21T02:14:10.180Z,22.4
2022-11-21T02:19:11.770Z,22.4
2022-11-21T02:24:13.331Z,22.4
2022-11-21T02:29:14.904Z,22.4
2022-11-21T02:34:16.462Z,22.5
2022-11-21T02:39:18.274Z,22.5
2022-11-21T02:44:19.886Z,22.6
2022-11-21T02:49:21.481Z,22.6
2022-11-21T02:54:23.058Z,22.6
2022-11-21T02:59:24.639Z,22.6
2022-11-21T03:04:26.539Z,22.7
2022-11-21T03:09:28.284Z,22.7
2022-11-21T03:14:30.086Z,22.7
2022-11-21T03:19:32.020Z,22.8
2022-11-21T03:24:33.598Z,22.8
2022-11-21T03:29:35.166Z,22.8
2022-11-21T03:34:36.728Z,22.8
2022-11-21T03:39:38.304Z,22.8
2022-11-21T03:44:39.883Z,22.9
2022-11-21T03:49:41.448Z,22.9
2022-11-21T03:54:42.995Z,22.9
2022-11-21T03:59:44.827Z,22.9
2022-11-21T04:04:46.416Z,22.9
2022-11-21T04:09:47.993Z,23
2022-11-21T04:14:49.614Z,23
2022-11-21T04:19:51.221Z,23
2022-11-21T04:24:52.754Z,23.1
2022-11-21T04:29:54.319Z,23.1
2022-11-21T04:34:55.849Z,23.1
2022-11-21T04:39:57.409Z,23.1
2022-11-21T04:44:59.006Z,23.1
2022-11-21T04:50:00.600Z,23.2
2022-11-21T04:55:02.162Z,23.2
2022-11-21T05:00:03.824Z,23.2
2022-11-21T05:05:05.375Z,23.2
2022-11-21T05:10:06.964Z,23.3
2022-11-21T05:15:08.569Z,23.3
2022-11-21T05:20:10.145Z,23.3
2022-11-21T05:25:11.734Z,23.3
2022-11-21T05:30:13.380Z,23.3
2022-11-21T05:35:14.912Z,23.4
2022-11-21T05:40:16.525Z,23.4
2022-11-21T05:45:18.105Z,23.4
2022-11-21T05:50:19.692Z,23.4
2022-11-21T05:55:21.262Z,23.4
2022-11-21T06:00:22.895Z,23.4
2022-11-21T06:10:32.953Z,23.5
2022-11-21T06:15:52.455Z,23.5
2022-11-21T06:20:54.154Z,23.5
2022-11-21T06:25:55.881Z,23.5
2022-11-21T06:30:57.584Z,23.6
2022-11-21T06:35:59.372Z,23.6
2022-11-21T06:46:06.712Z,23.6
2022-11-21T06:56:14.960Z,23.6
2022-11-21T07:01:16.905Z,23.6
2022-11-21T07:06:17.771Z,23.7
2022-11-21T07:11:26.456Z,23.7
2022-11-21T07:16:28.111Z,23.7
2022-11-21T07:21:29.162Z,23.7
2022-11-21T07:26:30.794Z,23.7
2022-11-21T07:31:32.659Z,23.7
2022-11-21T07:36:34.305Z,23.7
2022-11-21T07:41:36.136Z,23.7
2022-11-21T07:46:37.817Z,23.8
2022-11-21T07:51:39.420Z,23.8
2022-11-21T07:56:41.342Z,23.8
2022-11-21T08:01:45.528Z,23.8
2022-11-21T08:06:47.584Z,23.9
2022-11-21T08:11:49.450Z,23.9
2022-11-21T08:16:51.068Z,23.9
2022-11-21T08:21:52.692Z,23.9
2022-11-21T08:26:54.298Z,23.9
2022-11-21T08:31:56.172Z,23.9
2022-11-21T08:36:57.816Z,23.9
2022-11-21T08:41:59.696Z,23.9
2022-11-21T08:47:00.183Z,24
2022-11-21T08:52:01.769Z,24
2022-11-21T08:57:03.403Z,24
2022-11-21T09:02:04.505Z,24
2022-11-21T09:07:06.290Z,24
2022-11-21T09:12:08.055Z,24.1
2022-11-21T09:17:10.036Z,24
2022-11-21T09:22:11.668Z,24.1
2022-11-21T09:27:13.283Z,24.1
2022-11-21T09:32:14.905Z,24.1
2022-11-21T09:37:16.495Z,24.1
2022-11-21T09:42:18.155Z,24.1
2022-11-21T09:47:19.816Z,24.1
2022-11-21T09:52:21.402Z,24.1
2022-11-21T09:57:23.193Z,24.1
2022-11-21T10:02:24.793Z,24.1
2022-11-21T10:07:26.469Z,24.2
2022-11-21T10:12:28.169Z,24.2
2022-11-21T10:17:29.811Z,24.2
2022-11-21T10:22:31.611Z,24.2
2022-11-21T10:27:33.212Z,24.2
2022-11-21T10:32:34.855Z,24.2
2022-11-21T10:37:36.461Z,24.3
2022-11-21T10:42:38.054Z,24.3
2022-11-21T10:47:39.653Z,24.3
2022-11-21T10:52:42.051Z,24.3
2022-11-21T10:57:43.660Z,24.3
2022-11-21T11:02:45.334Z,24.3
2022-11-21T11:07:47.019Z,24.3
2022-11-21T11:12:47.912Z,24.3
2022-11-21T11:17:49.544Z,24.3
2022-11-21T11:22:51.182Z,24.3
2022-11-21T11:27:52.778Z,24.3
2022-11-21T11:32:54.410Z,24.3
2022-11-21T11:37:56.025Z,24.3
2022-11-21T11:42:57.807Z,24.4
2022-11-21T11:47:59.453Z,24.4
2022-11-21T11:53:01.071Z,24.4
2022-11-21T11:58:02.670Z,24.4
2022-11-21T12:03:04.520Z,24.4
2022-11-21T12:13:38.044Z,24.4
2022-11-21T12:18:39.827Z,24.4
2022-11-21T12:23:41.426Z,24.4
2022-11-21T12:28:43.073Z,24.4
2022-11-21T12:33:44.716Z,24.4
2022-11-21T12:38:46.998Z,24.4
2022-11-21T12:43:51.894Z,24.4
2022-11-21T12:48:56.158Z,24.4
2022-11-21T12:53:57.964Z,24.4
2022-11-21T12:58:59.570Z,24.5
2022-11-21T13:04:01.254Z,24.5
2022-11-21T13:09:02.879Z,24.5
2022-11-21T13:14:04.488Z,24.5
2022-11-21T13:19:06.125Z,24.5
2022-11-21T13:24:07.773Z,24.5
2022-11-21T13:29:09.617Z,24.5
2022-11-21T13:34:11.489Z,24.5
2022-11-21T13:39:13.157Z,24.5
2022-11-21T13:44:14.977Z,24.6
2022-11-21T13:49:16.598Z,24.6
2022-11-21T13:54:18.212Z,24.6
2022-11-21T13:59:19.820Z,24.6
2022-11-21T14:04:21.712Z,24.6
2022-11-21T14:09:23.353Z,24.6
2022-11-21T14:14:24.977Z,24.6
2022-11-21T14:19:27.211Z,24.6
2022-11-21T14:24:29.076Z,24.6
2022-11-21T14:29:30.951Z,24.6
2022-11-21T14:34:32.854Z,24.6
2022-11-21T14:39:37.967Z,24.6
2022-11-21T14:44:40.367Z,24.6
2022-11-21T14:49:42.244Z,24.6
2022-11-21T14:54:54.896Z,24.6
2022-11-21T15:00:08.200Z,24.6
2022-11-21T15:05:09.848Z,24.6
2022-11-21T15:10:29.624Z,24.6
2022-11-21T15:15:32.088Z,24.4
2022-11-21T15:20:33.700Z,24.3
2022-11-21T15:25:35.307Z,24.3
2022-11-21T15:30:36.960Z,24.3
2022-11-21T15:35:37.796Z,24.3
2022-11-21T15:40:42.977Z,24.3
2022-11-21T15:45:46.939Z,24.3
2022-11-21T15:50:48.719Z,24.3
2022-11-21T15:55:50.352Z,24.3
2022-11-21T16:00:52.025Z,24.3
2022-11-21T16:05:53.675Z,24.3
2022-11-21T16:10:55.296Z,24.3
2022-11-21T16:15:56.916Z,24.4
2022-11-21T16:20:59.020Z,24.4
2022-11-21T16:26:00.729Z,24.4
2022-11-21T16:31:02.594Z,24.4
2022-11-21T16:36:04.291Z,24.4
2022-11-21T16:41:05.932Z,24.4
2022-11-21T16:46:07.522Z,24.4
2022-11-21T16:51:09.383Z,24.4
2022-11-21T16:56:11.020Z,24.4
2022-11-21T17:01:12.678Z,24.4
2022-11-21T17:06:13.669Z,24.4
2022-11-21T17:11:15.266Z,25.1
2022-11-21T17:16:16.979Z,29.6
2022-11-21T17:21:18.818Z,32.6
2022-11-21T17:26:19.305Z,35.3
2022-11-21T17:31:19.583Z,38.1
2022-11-21T17:36:20.073Z,40.9
2022-11-21T17:41:20.982Z,43.6
2022-11-21T17:46:21.495Z,45.2
2022-11-21T17:51:22.113Z,45.4
2022-11-21T17:56:22.687Z,45.2
2022-11-21T18:01:23.611Z,45.2
2022-11-21T18:06:24.356Z,45.1
2022-11-21T18:11:24.914Z,45.1
2022-11-21T18:16:25.535Z,45.1
2022-11-21T18:21:26.139Z,45.1
2022-11-21T18:26:26.735Z,45
2022-11-21T18:31:27.358Z,44.9
2022-11-21T18:36:27.924Z,44.9
2022-11-21T18:41:28.511Z,44.9
2022-11-21T18:46:29.116Z,44.8
2022-11-21T18:51:29.692Z,44.8
2022-11-21T18:56:30.551Z,44.7
2022-11-21T19:01:31.137Z,44.7
2022-11-21T19:06:31.680Z,44.7
2022-11-21T19:11:32.275Z,44.6
2022-11-21T19:16:33.204Z,44.6
2022-11-21T19:21:34.017Z,44.6
2022-11-21T19:26:34.580Z,44.5
2022-11-21T19:31:39.260Z,44.5
2022-11-21T19:36:41.623Z,44.4
2022-11-21T19:41:42.183Z,44.4
2022-11-21T19:46:42.957Z,44.4
2022-11-21T19:51:43.805Z,44.3
2022-11-21T19:56:44.593Z,44.2
2022-11-21T20:01:49.602Z,44.2
2022-11-21T20:06:52.784Z,44.2
2022-11-21T20:11:53.364Z,44.1
2022-11-21T20:16:54.132Z,44.1
2022-11-21T20:21:54.777Z,44.1
2022-11-21T20:26:56.196Z,43.9
2022-11-21T20:31:57.603Z,43.8
2022-11-21T20:36:58.390Z,43.5
2022-11-21T20:41:59.190Z,43.4
2022-11-21T20:46:59.845Z,43.4
2022-11-21T20:57:30.896Z,43.3
2022-11-21T21:02:31.372Z,43.3
2022-11-21T21:07:31.925Z,43.2
2022-11-21T21:12:32.426Z,43.1
2022-11-21T21:17:32.949Z,43.1
2022-11-21T21:22:33.467Z,43
2022-11-21T21:27:33.994Z,42.9
2022-11-21T21:32:34.774Z,42.9
2022-11-21T21:37:35.290Z,42.8
2022-11-21T21:42:35.841Z,42.7
2022-11-21T21:47:36.343Z,42.7
2022-11-21T21:52:36.810Z,42.7
2022-11-21T21:57:41.630Z,42.6
2022-11-21T22:02:44.612Z,42.6
2022-11-21T22:07:45.168Z,42.5
2022-11-21T22:12:45.783Z,42.3
2022-11-21T22:17:46.280Z,42.2
2022-11-21T22:22:46.758Z,42.2
2022-11-21T22:27:47.228Z,42.1
2022-11-21T22:32:47.703Z,42.1
2022-11-21T22:37:48.148Z,42
2022-11-21T22:42:48.579Z,41.9
2022-11-21T22:47:49.030Z,41.9
2022-11-21T22:52:49.521Z,41.8
2022-11-21T22:57:50.036Z,41.7
2022-11-21T23:02:50.455Z,41.7
2022-11-21T23:07:52.270Z,41.7
2022-11-21T23:12:52.776Z,41.6
2022-11-21T23:17:53.189Z,41.6
2022-11-21T23:22:53.604Z,41.5
2022-11-21T23:27:54.325Z,41.5
2022-11-21T23:32:54.757Z,41.4
2022-11-21T23:37:55.156Z,41.4
2022-11-21T23:42:55.588Z,41.3
2022-11-21T23:47:56.022Z,41.3
2022-11-21T23:52:56.429Z,41.2
2022-11-21T23:57:56.872Z,41.2
